Arcadia — ZCDN2 — position and weather

sailwx.info

Track history (hours):
 
Tides and Currents Weather Stations Pressure Air Temp Water Temp Dewpoint Dewpoint Depression Visibility Wind Speed Wind Dir Waves Ship Positions

Arcadia

Last reported at 2018-Jun-22 21:33 UTC. Time now 2018-Jun-24 22:33 UTC.
Position N 44°31' E 013°39'.

Length 285.1 m; beam 32.2 m; draft 8 m.

Type: Passenger vessel. MMSI: 310459000.

Date/timePositionNaut miles runAvg speedWind from/ knotsBaromVisibWave heightAir tempDewpointWater temp
2018-Jun-22 21:33N 44°31' E 013°39'119.6
2018-Jun-22 21:31N 44°32' E 013°38'1019.4
2018-Jun-22 21:01N 44°40' E 013°31'1019.2
2018-Jun-22 20:30N 44°48' E 013°23'918.7
2018-Jun-22 20:00N 44°56' E 013°15'1119.1
2018-Jun-22 19:26N 45°03' E 013°03'819.4
2018-Jun-22 19:00N 45°08' E 012°55'919.0
2018-Jun-22 18:30N 45°15' E 012°44'917.2
2018-Jun-22 18:00N 45°20' E 012°35'713.6
2018-Jun-22 17:30N 45°25' E 012°28'4 7.2
2018-Jun-22 16:59N 45°26' E 012°23'2 5.1
2018-Jun-22 16:30N 45°26' E 012°19'1 1.1
2018-Jun-22 15:59N 45°26' E 012°19'0 0.0
2018-Jun-22 15:23N 45°26' E 012°19'0 0.0
2018-Jun-22 14:59N 45°26' E 012°19'0 0.0
2018-Jun-22 14:29N 45°26' E 012°19'0 0.0
2018-Jun-22 13:59N 45°26' E 012°19'0 0.0
2018-Jun-22 13:29N 45°26' E 012°19'0 0.0
2018-Jun-22 12:59N 45°26' E 012°19'0 0.0
2018-Jun-22 12:29N 45°26' E 012°19'0 0.0
2018-Jun-22 11:59N 45°26' E 012°19'0 0.0
2018-Jun-22 11:29N 45°26' E 012°19'0 0.0
2018-Jun-22 10:59N 45°26' E 012°19'0 0.0
2018-Jun-22 10:29N 45°26' E 012°19'0 0.0
2018-Jun-22 09:59N 45°26' E 012°19'0 0.0
2018-Jun-22 09:29N 45°26' E 012°19'0 0.0
2018-Jun-22 08:59N 45°26' E 012°19'0 0.0
2018-Jun-22 08:29N 45°26' E 012°19'0 0.0
2018-Jun-22 07:59N 45°26' E 012°19'0 0.0
2018-Jun-22 07:29N 45°26' E 012°19'0 0.0
2018-Jun-22 06:59N 45°26' E 012°19'0 0.0
2018-Jun-22 06:29N 45°26' E 012°19'0 0.0
2018-Jun-22 05:59N 45°26' E 012°19'0 0.0
2018-Jun-22 05:30N 45°26' E 012°19'1 1.2
2018-Jun-22 05:00N 45°26' E 012°19'2 4.9
2018-Jun-22 04:29N 45°26' E 012°23'4 8.3
2018-Jun-22 03:59N 45°24' E 012°28'511.6
2018-Jun-22 03:31N 45°19' E 012°32'917.3
2018-Jun-22 03:01N 45°13' E 012°40'918.4
2018-Jun-22 02:30N 45°07' E 012°49'918.2
2018-Jun-22 02:00N 44°58' E 012°55'1018.8
2018-Jun-22 01:28N 44°49' E 013°00'1019.3
2018-Jun-22 00:55N 44°39' E 013°04'5418.7
2018-Jun-21 22:03N 43°57' E 013°51'119.0
2018-Jun-21 22:00N 43°57' E 013°52'3197.7
2018-Jun-21 22:00N 43°54' E 013°54'714.8 200 / 161012.210.8 25.021.223.0
2018-Jun-21 21:31N 43°52' E 014°04'918.8
2018-Jun-21 21:00N 43°47' E 014°15'2119.2
2018-Jun-21 19:53N 43°32' E 014°36'17818.0
2018-Jun-21 10:00N 41°24' E 017°24'22513.7 320 / 131016.510.8 24.520.723.0
2018-Jun-20 17:35N 37°48' E 015°60'619.2
2018-Jun-20 17:15N 37°48' E 015°52'1819.2
2018-Jun-20 16:19N 37°50' E 015°29'15 1.2
2018-Jun-20 04:07N 38°05' E 015°32'417.3
2018-Jun-20 03:53N 38°08' E 015°34'616.1
2018-Jun-20 03:30N 38°14' E 015°36'510.6
2018-Jun-20 02:59N 38°19' E 015°39'611.0
2018-Jun-20 02:29N 38°21' E 015°32'611.4
2018-Jun-20 01:59N 38°20' E 015°25'815.2
2018-Jun-20 01:29N 38°20' E 015°15'815.0
2018-Jun-20 00:58N 38°19' E 015°05'715.9
2018-Jun-20 00:30N 38°19' E 014°56'6215.5
2018-Jun-19 20:32N 38°24' E 013°37'014.9
2018-Jun-19 20:30N 38°24' E 013°37'714.6
2018-Jun-19 20:00N 38°24' E 013°28'1917.9
2018-Jun-19 18:56N 38°25' E 013°03'818.1
2018-Jun-19 18:30N 38°26' E 012°53'918.3
2018-Jun-19 18:00N 38°26' E 012°42'15519.3
2018-Jun-19 10:00N 38°30' E 009°24'23119.3 270 / 91017.510.8 22.519.419.0
2018-Jun-18 22:00N 39°00' E 004°30'5716.5 360 / 171018.810.8 22.516.820.0
2018-Jun-18 18:33N 39°11' E 003°18'419.4
2018-Jun-18 18:22N 39°12' E 003°14'719.5
2018-Jun-18 18:00N 39°13' E 003°05'1019.7
2018-Jun-18 17:28N 39°16' E 002°52'919.6
2018-Jun-18 17:00N 39°21' E 002°42'918.5
2018-Jun-18 16:30N 39°31' E 002°39'3 5.9
2018-Jun-18 16:00N 39°33' E 002°38'0 0.0
2018-Jun-18 15:19N 39°33' E 002°38'0 0.0
2018-Jun-18 14:58N 39°33' E 002°38'0 0.0
2018-Jun-18 14:28N 39°33' E 002°38'0 0.0
2018-Jun-18 13:58N 39°33' E 002°38'0 0.0
2018-Jun-18 13:28N 39°33' E 002°38'0 0.0
2018-Jun-18 12:58N 39°33' E 002°38'0 0.0
2018-Jun-18 12:28N 39°33' E 002°38'0 0.0
2018-Jun-18 11:58N 39°33' E 002°38'0 0.0
2018-Jun-18 11:25N 39°33' E 002°38'0 0.0
2018-Jun-18 10:58N 39°33' E 002°38'0 0.0
2018-Jun-18 10:28N 39°33' E 002°38'0 0.0
2018-Jun-18 09:58N 39°33' E 002°38'0 0.0
2018-Jun-18 09:28N 39°33' E 002°38'0 0.0
2018-Jun-18 08:58N 39°33' E 002°38'0 0.0
2018-Jun-18 08:28N 39°33' E 002°38'0 0.0
2018-Jun-18 07:58N 39°33' E 002°38'0 0.0
2018-Jun-18 07:28N 39°33' E 002°38'0 0.0
2018-Jun-18 06:58N 39°33' E 002°38'0 0.0
2018-Jun-18 06:28N 39°33' E 002°38'0 0.0
2018-Jun-18 05:58N 39°33' E 002°38'0 0.0
2018-Jun-18 05:28N 39°33' E 002°38'0 0.2
2018-Jun-18 05:00N 39°33' E 002°38'2 3.6
2018-Jun-18 04:30N 39°32' E 002°39'713.7
2018-Jun-18 04:00N 39°25' E 002°36'816.6
2018-Jun-18 03:30N 39°19' E 002°29'9620.3
2018-Jun-17 22:45N 38°12' E 001°00'3022.7
2018-Jun-17 21:25N 37°54' E 000°29'922.7
2018-Jun-17 21:00N 37°48' E 000°20'1123.0
2018-Jun-17 20:30N 37°42' E 000°08'1122.4
2018-Jun-17 20:00N 37°35' W 000°04'1122.4
2018-Jun-17 19:31N 37°29' W 000°15'1122.2
2018-Jun-17 19:00N 37°22' W 000°27'1122.2
2018-Jun-17 18:30N 37°15' W 000°38'1121.9
2018-Jun-17 18:00N 37°09' W 000°49'1522.2
2018-Jun-17 17:18N 36°60' W 001°05'20822.9
2018-Jun-17 08:13N 35°58' W 005°12'523.7
2018-Jun-17 08:00N 35°59' W 005°18'1019.0
2018-Jun-17 07:30N 36°08' W 005°22'1 1.9
2018-Jun-17 06:49N 36°09' W 005°22'2 7.0
2018-Jun-17 06:30N 36°07' W 005°22'611.5
2018-Jun-17 06:00N 36°01' W 005°21'714.6
2018-Jun-17 05:30N 35°58' W 005°29'814.1
2018-Jun-17 04:58N 35°54' W 005°37'713.5
2018-Jun-17 04:26N 35°53' W 005°46'818.6
2018-Jun-17 03:59N 35°53' W 005°57'12820.0
2018-Jun-16 21:32N 36°24' W 008°31'119.8
2018-Jun-16 21:30N 36°24' W 008°32'2319.8
2018-Jun-16 20:20N 36°30' W 008°60'619.4
2018-Jun-16 20:00N 36°32' W 009°07'1019.4
2018-Jun-16 19:30N 36°35' W 009°19'1020.1
2018-Jun-16 19:00N 36°43' W 009°27'1019.5
2018-Jun-16 18:30N 36°52' W 009°32'1020.0
2018-Jun-16 18:00N 37°01' W 009°37'1020.0
2018-Jun-16 17:30N 37°11' W 009°40'1019.8
2018-Jun-16 17:00N 37°20' W 009°42'1019.5
2018-Jun-16 16:30N 37°30' W 009°45'1019.4
2018-Jun-16 16:00N 37°39' W 009°48'1019.3
2018-Jun-16 15:30N 37°49' W 009°51'1019.7
2018-Jun-16 15:00N 37°58' W 009°54'1019.9
2018-Jun-16 14:30N 38°08' W 009°57'1019.9
2018-Jun-16 14:00N 38°17' W 010°01'1019.5
2018-Jun-16 13:30N 38°27' W 010°03'1122.5
2018-Jun-16 13:01N 38°38' W 010°05'1223.0
2018-Jun-16 12:30N 38°50' W 010°07'1122.9
2018-Jun-16 12:00N 39°01' W 010°07'1122.8
2018-Jun-16 11:31N 39°12' W 010°06'1122.7
2018-Jun-16 11:01N 39°24' W 010°05'1223.1
2018-Jun-16 10:29N 39°36' W 010°05'1422.9
2018-Jun-16 09:53N 39°49' W 010°05'1023.0
2018-Jun-16 09:28N 39°59' W 010°05'1923.1
2018-Jun-16 08:40N 40°18' W 010°05'422.4
2018-Jun-16 08:30N 40°21' W 010°05'20819.8
2018-Jun-15 22:00N 43°48' W 009°36'32720.3 300 / 71021.810.8 15.510.814.0
2018-Jun-15 05:55N 48°27' W 005°29'717.8
2018-Jun-15 05:30N 48°33' W 005°23'816.4
2018-Jun-15 05:00N 48°38' W 005°14'816.5
2018-Jun-15 04:31N 48°44' W 005°05'816.7
2018-Jun-15 04:01N 48°51' W 004°58'816.4
2018-Jun-15 03:30N 48°55' W 004°47'7119.8
2018-Jun-14 23:55N 49°42' W 003°25'921.6
2018-Jun-14 23:30N 49°48' W 003°15'1528.8
2018-Jun-14 23:00N 49°54' W 002°54'54524.3 300 / 231017.410.8 14.010.211.0
2018-Jun-14 22:59N 49°55' W 003°02'1021.2
2018-Jun-14 22:30N 50°01' W 002°48'1120.2
2018-Jun-14 21:59N 50°04' W 002°32'3618.1
2018-Jun-14 20:01N 50°20' W 001°43'217.7
2018-Jun-14 19:56N 50°21' W 001°41'817.7
2018-Jun-14 19:30N 50°24' W 001°30'917.7
2018-Jun-14 19:00N 50°28' W 001°17'917.6
2018-Jun-14 18:30N 50°32' W 001°05'817.0
2018-Jun-14 18:01N 50°39' W 000°58'511.0
2018-Jun-14 17:30N 50°44' W 001°03'917.9
2018-Jun-14 17:00N 50°46' W 001°16'4 8.8
2018-Jun-14 16:30N 50°50' W 001°19'5 9.1
2018-Jun-14 15:59N 50°54' W 001°25'1 1.6
2018-Jun-14 15:26N 50°54' W 001°26'0 0.0
2018-Jun-14 14:59N 50°54' W 001°26'0 0.0
2018-Jun-14 14:29N 50°54' W 001°26'0 0.0
2018-Jun-14 13:59N 50°54' W 001°26'0 0.0
2018-Jun-14 13:29N 50°54' W 001°26'0 0.0
2018-Jun-14 12:59N 50°54' W 001°26'0 0.0
2018-Jun-14 12:29N 50°54' W 001°26'0 0.0
2018-Jun-14 11:59N 50°54' W 001°26'0 0.0
2018-Jun-14 11:29N 50°54' W 001°26'0 0.0
2018-Jun-14 10:56N 50°54' W 001°26'0 0.0
2018-Jun-14 10:29N 50°54' W 001°26'0 0.0
2018-Jun-14 09:59N 50°54' W 001°26'0 0.0
2018-Jun-14 09:29N 50°54' W 001°26'0 0.0
2018-Jun-14 08:59N 50°54' W 001°26'0 0.0
2018-Jun-14 08:29N 50°54' W 001°26'0 0.0
2018-Jun-14 07:59N 50°54' W 001°26'0 0.0
2018-Jun-14 07:29N 50°54' W 001°26'0 0.0
2018-Jun-14 06:59N 50°54' W 001°26'0 0.0
2018-Jun-14 06:29N 50°54' W 001°26'0 0.0
2018-Jun-14 05:59N 50°54' W 001°26'0 0.0
2018-Jun-14 05:26N 50°54' W 001°26'0 0.4
2018-Jun-14 05:00N 50°54' W 001°26'2 3.0
2018-Jun-14 04:30N 50°53' W 001°24'5 9.8
2018-Jun-14 04:00N 50°50' W 001°19'4 7.4
2018-Jun-14 03:30N 50°47' W 001°16'917.1
2018-Jun-14 03:00N 50°44' W 001°03'510.3
2018-Jun-14 02:30N 50°39' W 000°59'713.2
2018-Jun-14 02:00N 50°33' W 000°60'815.2
2018-Jun-14 01:30N 50°30' W 001°11'1413.4
2018-Jun-14 00:28N 50°23' W 001°30'612.0
2018-Jun-13 23:57N 50°20' W 001°39'712.4
2018-Jun-13 23:23N 50°16' W 001°47'1642.0
2018-Jun-13 23:00N 50°00' W 001°54'4 7.9 300 / 161017.310.8 14.011.211.0
2018-Jun-13 22:26N 50°04' W 001°56'513.0
2018-Jun-13 22:00N 50°02' W 002°03'713.9
2018-Jun-13 21:30N 49°59' W 002°13'1314.3
2018-Jun-13 20:34N 49°54' W 002°32'114.5
2018-Jun-13 20:30N 49°53' W 002°34'814.5
2018-Jun-13 19:55N 49°50' W 002°46'1714.3
2018-Jun-13 18:43N 49°41' W 003°08'314.1
2018-Jun-13 18:30N 49°39' W 003°13'7215.1
2018-Jun-13 13:45N 48°55' W 004°39'415.2
2018-Jun-13 13:30N 48°53' W 004°44'815.6
2018-Jun-13 13:00N 48°49' W 004°54'816.4
2018-Jun-13 12:30N 48°44' W 005°04'815.8
2018-Jun-13 12:00N 48°39' W 005°13'815.3
2018-Jun-13 11:30N 48°33' W 005°21'714.6
2018-Jun-13 11:00N 48°27' W 005°27'18215.1
2018-Jun-12 23:00N 45°48' W 007°36'   320 / 131022.710.8 16.014.315.0
Track history (hours):
 
Tides and Currents Weather Stations Pressure Air Temp Water Temp Dewpoint Dewpoint Depression Visibility Wind Speed Wind Dir Waves Ship Positions

Arcadia

Last reported at 2018-Jun-22 21:33 UTC. Time now 2018-Jun-24 22:33 UTC.
Position N 44°31' E 013°39'.

Length 285.1 m; beam 32.2 m; draft 8 m.

Type: Passenger vessel. MMSI: 310459000.

Date/timePositionNaut miles runAvg speedWind from/ knotsBaromVisibWave heightAir tempDewpointWater temp
2018-Jun-22 21:33N 44°31' E 013°39'119.6
2018-Jun-22 21:31N 44°32' E 013°38'1019.4
2018-Jun-22 21:01N 44°40' E 013°31'1019.2
2018-Jun-22 20:30N 44°48' E 013°23'918.7
2018-Jun-22 20:00N 44°56' E 013°15'1119.1
2018-Jun-22 19:26N 45°03' E 013°03'819.4
2018-Jun-22 19:00N 45°08' E 012°55'919.0
2018-Jun-22 18:30N 45°15' E 012°44'917.2
2018-Jun-22 18:00N 45°20' E 012°35'713.6
2018-Jun-22 17:30N 45°25' E 012°28'4 7.2
2018-Jun-22 16:59N 45°26' E 012°23'2 5.1
2018-Jun-22 16:30N 45°26' E 012°19'1 1.1
2018-Jun-22 15:59N 45°26' E 012°19'0 0.0
2018-Jun-22 15:23N 45°26' E 012°19'0 0.0
2018-Jun-22 14:59N 45°26' E 012°19'0 0.0
2018-Jun-22 14:29N 45°26' E 012°19'0 0.0
2018-Jun-22 13:59N 45°26' E 012°19'0 0.0
2018-Jun-22 13:29N 45°26' E 012°19'0 0.0
2018-Jun-22 12:59N 45°26' E 012°19'0 0.0
2018-Jun-22 12:29N 45°26' E 012°19'0 0.0
2018-Jun-22 11:59N 45°26' E 012°19'0 0.0
2018-Jun-22 11:29N 45°26' E 012°19'0 0.0
2018-Jun-22 10:59N 45°26' E 012°19'0 0.0
2018-Jun-22 10:29N 45°26' E 012°19'0 0.0
2018-Jun-22 09:59N 45°26' E 012°19'0 0.0
2018-Jun-22 09:29N 45°26' E 012°19'0 0.0
2018-Jun-22 08:59N 45°26' E 012°19'0 0.0
2018-Jun-22 08:29N 45°26' E 012°19'0 0.0
2018-Jun-22 07:59N 45°26' E 012°19'0 0.0
2018-Jun-22 07:29N 45°26' E 012°19'0 0.0
2018-Jun-22 06:59N 45°26' E 012°19'0 0.0
2018-Jun-22 06:29N 45°26' E 012°19'0 0.0
2018-Jun-22 05:59N 45°26' E 012°19'0 0.0
2018-Jun-22 05:30N 45°26' E 012°19'1 1.2
2018-Jun-22 05:00N 45°26' E 012°19'2 4.9
2018-Jun-22 04:29N 45°26' E 012°23'4 8.3
2018-Jun-22 03:59N 45°24' E 012°28'511.6
2018-Jun-22 03:31N 45°19' E 012°32'917.3
2018-Jun-22 03:01N 45°13' E 012°40'918.4
2018-Jun-22 02:30N 45°07' E 012°49'918.2
2018-Jun-22 02:00N 44°58' E 012°55'1018.8
2018-Jun-22 01:28N 44°49' E 013°00'1019.3
2018-Jun-22 00:55N 44°39' E 013°04'5418.7
2018-Jun-21 22:03N 43°57' E 013°51'119.0
2018-Jun-21 22:00N 43°57' E 013°52'3197.7
2018-Jun-21 22:00N 43°54' E 013°54'714.8 200 / 161012.210.8 25.021.223.0
2018-Jun-21 21:31N 43°52' E 014°04'918.8
2018-Jun-21 21:00N 43°47' E 014°15'2119.2
2018-Jun-21 19:53N 43°32' E 014°36'17818.0
2018-Jun-21 10:00N 41°24' E 017°24'22513.7 320 / 131016.510.8 24.520.723.0
2018-Jun-20 17:35N 37°48' E 015°60'619.2
2018-Jun-20 17:15N 37°48' E 015°52'1819.2
2018-Jun-20 16:19N 37°50' E 015°29'15 1.2
2018-Jun-20 04:07N 38°05' E 015°32'417.3
2018-Jun-20 03:53N 38°08' E 015°34'616.1
2018-Jun-20 03:30N 38°14' E 015°36'510.6
2018-Jun-20 02:59N 38°19' E 015°39'611.0
2018-Jun-20 02:29N 38°21' E 015°32'611.4
2018-Jun-20 01:59N 38°20' E 015°25'815.2
2018-Jun-20 01:29N 38°20' E 015°15'815.0
2018-Jun-20 00:58N 38°19' E 015°05'715.9
2018-Jun-20 00:30N 38°19' E 014°56'6215.5
2018-Jun-19 20:32N 38°24' E 013°37'014.9
2018-Jun-19 20:30N 38°24' E 013°37'714.6
2018-Jun-19 20:00N 38°24' E 013°28'1917.9
2018-Jun-19 18:56N 38°25' E 013°03'818.1
2018-Jun-19 18:30N 38°26' E 012°53'918.3
2018-Jun-19 18:00N 38°26' E 012°42'15519.3
2018-Jun-19 10:00N 38°30' E 009°24'23119.3 270 / 91017.510.8 22.519.419.0
2018-Jun-18 22:00N 39°00' E 004°30'5716.5 360 / 171018.810.8 22.516.820.0
2018-Jun-18 18:33N 39°11' E 003°18'419.4
2018-Jun-18 18:22N 39°12' E 003°14'719.5
2018-Jun-18 18:00N 39°13' E 003°05'1019.7
2018-Jun-18 17:28N 39°16' E 002°52'919.6
2018-Jun-18 17:00N 39°21' E 002°42'918.5
2018-Jun-18 16:30N 39°31' E 002°39'3 5.9
2018-Jun-18 16:00N 39°33' E 002°38'0 0.0
2018-Jun-18 15:19N 39°33' E 002°38'0 0.0
2018-Jun-18 14:58N 39°33' E 002°38'0 0.0
2018-Jun-18 14:28N 39°33' E 002°38'0 0.0
2018-Jun-18 13:58N 39°33' E 002°38'0 0.0
2018-Jun-18 13:28N 39°33' E 002°38'0 0.0
2018-Jun-18 12:58N 39°33' E 002°38'0 0.0
2018-Jun-18 12:28N 39°33' E 002°38'0 0.0
2018-Jun-18 11:58N 39°33' E 002°38'0 0.0
2018-Jun-18 11:25N 39°33' E 002°38'0 0.0
2018-Jun-18 10:58N 39°33' E 002°38'0 0.0
2018-Jun-18 10:28N 39°33' E 002°38'0 0.0
2018-Jun-18 09:58N 39°33' E 002°38'0 0.0
2018-Jun-18 09:28N 39°33' E 002°38'0 0.0
2018-Jun-18 08:58N 39°33' E 002°38'0 0.0
2018-Jun-18 08:28N 39°33' E 002°38'0 0.0
2018-Jun-18 07:58N 39°33' E 002°38'0 0.0
2018-Jun-18 07:28N 39°33' E 002°38'0 0.0
2018-Jun-18 06:58N 39°33' E 002°38'0 0.0
2018-Jun-18 06:28N 39°33' E 002°38'0 0.0
2018-Jun-18 05:58N 39°33' E 002°38'0 0.0
2018-Jun-18 05:28N 39°33' E 002°38'0 0.2
2018-Jun-18 05:00N 39°33' E 002°38'2 3.6
2018-Jun-18 04:30N 39°32' E 002°39'713.7
2018-Jun-18 04:00N 39°25' E 002°36'816.6
2018-Jun-18 03:30N 39°19' E 002°29'9620.3
2018-Jun-17 22:45N 38°12' E 001°00'3022.7
2018-Jun-17 21:25N 37°54' E 000°29'922.7
2018-Jun-17 21:00N 37°48' E 000°20'1123.0
2018-Jun-17 20:30N 37°42' E 000°08'1122.4
2018-Jun-17 20:00N 37°35' W 000°04'1122.4
2018-Jun-17 19:31N 37°29' W 000°15'1122.2
2018-Jun-17 19:00N 37°22' W 000°27'1122.2
2018-Jun-17 18:30N 37°15' W 000°38'1121.9
2018-Jun-17 18:00N 37°09' W 000°49'1522.2
2018-Jun-17 17:18N 36°60' W 001°05'20822.9
2018-Jun-17 08:13N 35°58' W 005°12'523.7
2018-Jun-17 08:00N 35°59' W 005°18'1019.0
2018-Jun-17 07:30N 36°08' W 005°22'1 1.9
2018-Jun-17 06:49N 36°09' W 005°22'2 7.0
2018-Jun-17 06:30N 36°07' W 005°22'611.5
2018-Jun-17 06:00N 36°01' W 005°21'714.6
2018-Jun-17 05:30N 35°58' W 005°29'814.1
2018-Jun-17 04:58N 35°54' W 005°37'713.5
2018-Jun-17 04:26N 35°53' W 005°46'818.6
2018-Jun-17 03:59N 35°53' W 005°57'12820.0
2018-Jun-16 21:32N 36°24' W 008°31'119.8
2018-Jun-16 21:30N 36°24' W 008°32'2319.8
2018-Jun-16 20:20N 36°30' W 008°60'619.4
2018-Jun-16 20:00N 36°32' W 009°07'1019.4
2018-Jun-16 19:30N 36°35' W 009°19'1020.1
2018-Jun-16 19:00N 36°43' W 009°27'1019.5
2018-Jun-16 18:30N 36°52' W 009°32'1020.0
2018-Jun-16 18:00N 37°01' W 009°37'1020.0
2018-Jun-16 17:30N 37°11' W 009°40'1019.8
2018-Jun-16 17:00N 37°20' W 009°42'1019.5
2018-Jun-16 16:30N 37°30' W 009°45'1019.4
2018-Jun-16 16:00N 37°39' W 009°48'1019.3
2018-Jun-16 15:30N 37°49' W 009°51'1019.7
2018-Jun-16 15:00N 37°58' W 009°54'1019.9
2018-Jun-16 14:30N 38°08' W 009°57'1019.9
2018-Jun-16 14:00N 38°17' W 010°01'1019.5
2018-Jun-16 13:30N 38°27' W 010°03'1122.5
2018-Jun-16 13:01N 38°38' W 010°05'1223.0
2018-Jun-16 12:30N 38°50' W 010°07'1122.9
2018-Jun-16 12:00N 39°01' W 010°07'1122.8
2018-Jun-16 11:31N 39°12' W 010°06'1122.7
2018-Jun-16 11:01N 39°24' W 010°05'1223.1
2018-Jun-16 10:29N 39°36' W 010°05'1422.9
2018-Jun-16 09:53N 39°49' W 010°05'1023.0
2018-Jun-16 09:28N 39°59' W 010°05'1923.1
2018-Jun-16 08:40N 40°18' W 010°05'422.4
2018-Jun-16 08:30N 40°21' W 010°05'20819.8
2018-Jun-15 22:00N 43°48' W 009°36'32720.3 300 / 71021.810.8 15.510.814.0
2018-Jun-15 05:55N 48°27' W 005°29'717.8
2018-Jun-15 05:30N 48°33' W 005°23'816.4
2018-Jun-15 05:00N 48°38' W 005°14'816.5
2018-Jun-15 04:31N 48°44' W 005°05'816.7
2018-Jun-15 04:01N 48°51' W 004°58'816.4
2018-Jun-15 03:30N 48°55' W 004°47'7119.8
2018-Jun-14 23:55N 49°42' W 003°25'921.6
2018-Jun-14 23:30N 49°48' W 003°15'1528.8
2018-Jun-14 23:00N 49°54' W 002°54'54524.3 300 / 231017.410.8 14.010.211.0
2018-Jun-14 22:59N 49°55' W 003°02'1021.2
2018-Jun-14 22:30N 50°01' W 002°48'1120.2
2018-Jun-14 21:59N 50°04' W 002°32'3618.1
2018-Jun-14 20:01N 50°20' W 001°43'217.7
2018-Jun-14 19:56N 50°21' W 001°41'817.7
2018-Jun-14 19:30N 50°24' W 001°30'917.7
2018-Jun-14 19:00N 50°28' W 001°17'917.6
2018-Jun-14 18:30N 50°32' W 001°05'817.0
2018-Jun-14 18:01N 50°39' W 000°58'511.0
2018-Jun-14 17:30N 50°44' W 001°03'917.9
2018-Jun-14 17:00N 50°46' W 001°16'4 8.8
2018-Jun-14 16:30N 50°50' W 001°19'5 9.1
2018-Jun-14 15:59N 50°54' W 001°25'1 1.6
2018-Jun-14 15:26N 50°54' W 001°26'0 0.0
2018-Jun-14 14:59N 50°54' W 001°26'0 0.0
2018-Jun-14 14:29N 50°54' W 001°26'0 0.0
2018-Jun-14 13:59N 50°54' W 001°26'0 0.0
2018-Jun-14 13:29N 50°54' W 001°26'0 0.0
2018-Jun-14 12:59N 50°54' W 001°26'0 0.0
2018-Jun-14 12:29N 50°54' W 001°26'0 0.0
2018-Jun-14 11:59N 50°54' W 001°26'0 0.0
2018-Jun-14 11:29N 50°54' W 001°26'0 0.0
2018-Jun-14 10:56N 50°54' W 001°26'0 0.0
2018-Jun-14 10:29N 50°54' W 001°26'0 0.0
2018-Jun-14 09:59N 50°54' W 001°26'0 0.0
2018-Jun-14 09:29N 50°54' W 001°26'0 0.0
2018-Jun-14 08:59N 50°54' W 001°26'0 0.0
2018-Jun-14 08:29N 50°54' W 001°26'0 0.0
2018-Jun-14 07:59N 50°54' W 001°26'0 0.0
2018-Jun-14 07:29N 50°54' W 001°26'0 0.0
2018-Jun-14 06:59N 50°54' W 001°26'0 0.0
2018-Jun-14 06:29N 50°54' W 001°26'0 0.0
2018-Jun-14 05:59N 50°54' W 001°26'0 0.0
2018-Jun-14 05:26N 50°54' W 001°26'0 0.4
2018-Jun-14 05:00N 50°54' W 001°26'2 3.0
2018-Jun-14 04:30N 50°53' W 001°24'5 9.8
2018-Jun-14 04:00N 50°50' W 001°19'4 7.4
2018-Jun-14 03:30N 50°47' W 001°16'917.1
2018-Jun-14 03:00N 50°44' W 001°03'510.3
2018-Jun-14 02:30N 50°39' W 000°59'713.2
2018-Jun-14 02:00N 50°33' W 000°60'815.2
2018-Jun-14 01:30N 50°30' W 001°11'1413.4
2018-Jun-14 00:28N 50°23' W 001°30'612.0
2018-Jun-13 23:57N 50°20' W 001°39'712.4
2018-Jun-13 23:23N 50°16' W 001°47'1642.0
2018-Jun-13 23:00N 50°00' W 001°54'4 7.9 300 / 161017.310.8 14.011.211.0
2018-Jun-13 22:26N 50°04' W 001°56'513.0
2018-Jun-13 22:00N 50°02' W 002°03'713.9
2018-Jun-13 21:30N 49°59' W 002°13'1314.3
2018-Jun-13 20:34N 49°54' W 002°32'114.5
2018-Jun-13 20:30N 49°53' W 002°34'814.5
2018-Jun-13 19:55N 49°50' W 002°46'1714.3
2018-Jun-13 18:43N 49°41' W 003°08'314.1
2018-Jun-13 18:30N 49°39' W 003°13'7215.1
2018-Jun-13 13:45N 48°55' W 004°39'415.2
2018-Jun-13 13:30N 48°53' W 004°44'815.6
2018-Jun-13 13:00N 48°49' W 004°54'816.4
2018-Jun-13 12:30N 48°44' W 005°04'815.8
2018-Jun-13 12:00N 48°39' W 005°13'815.3
2018-Jun-13 11:30N 48°33' W 005°21'714.6
2018-Jun-13 11:00N 48°27' W 005°27'18215.1
2018-Jun-12 23:00N 45°48' W 007°36'   320 / 131022.710.8 16.014.315.0

Dump ship's entire track history